Albia, New York
Current Conditions -  °F | °C
As of 12:51 PM on Thursday 23 Oct 2014 (Local Time) from KALB Reporting Station
Light Rain Light Rain  
Wind Chill: 43°   Ceiling: 800
Heat Index: 47°   Visibility: 4mi
Dew Point: 44°   Wind: 8mph
Humidity: 90%   Direction: 360°N
Pressure: 29.82"   Gusts: NA
Location:  42.7478°N, 73.6049°W
Report Text: KALB 231651Z 36007KT 4SM -RA BR BKN008 BKN012 OVC020 08/07 A2982 RMK AO2 SLP099 BKN008 V SCT P0010 T00830067
Loading
Personal Weather Stations






























Interactive Weather Map New forecast layout! Learn more

10-Day Weather Forecast

Advertisements
Track Severe Weather on mobile